Hernando, Mississippi
Current Conditions -  °F | °C
As of 6:54 PM on Wednesday 22 Oct 2014 (Local Time) from KMEM Reporting Station
Clear Clear  
Wind Chill: 61°   Ceiling: Unl
Heat Index: 61°   Visibility: 10mi
Dew Point: 42°   Wind: 6mph
Humidity: 50%   Direction: 40°NE
Pressure: 30.17"   Gusts: NA
Location:  34.82°N, 89.99°W
Report Text: KMEM 222354Z 04005KT 10SM CLR 16/06 A3017 RMK AO2 SLP217 T01610056 10206 20161 55001
Loading
Personal Weather Stations






























Interactive Weather Map
Tropical Storm Tracking
New forecast layout! Learn more

10-Day Weather Forecast

Advertisements
Track Severe Weather on mobile